Terminal Aerodrome Forecast
Issued by NWS

Home | Current Version | Previous Version | Text Only | Print | Product List | Glossary Off
Versions: 1 2 3 4 5 6 7 8 9 10 11 12 13 14 15 16 17 18 19 20 21 22

000
FTUS43 KMPX 250520
TAFRWF
TAF
KRWF 250520Z 2506/2606 03003KT 4SM BR VCSH OVC003
     FM251600 26006KT P6SM SCT005 OVC009
     FM251800 25009KT P6SM SCT009 BKN015
     FM260000 28006KT P6SM SCT020 OVC040=

USA.gov is the U.S. government's official web portal to all federal, state and local government web resources and services.